Tropical Cyclones
[Index]
Main Index Home Page Stock Weather Photos Extreme Storms Discussion Storm News and Storm Chasing Reports Tropical Cyclones / Hurricanes / Typhoons Weather Data and Links Wild Fires / Bushfires Weather Observation Techniques Weather Picture Catalogue Tornado Pictures and Reports Stock Video Footage and DVDs for sale
Season 1975-1976 Tropical Cyclone WATOREA Track Map
Season 1975-1976 Summaries: [BoM-AU] [JTWC-AU] [JTWC-SIO] [JTWC-SPAC] [JTWC-SH]
<<- Previous TC | BoM 1975-1976 Season | Next TC ->>

click for intensity scale information  Lat/long Grid: Show Hide

 Date Labels: Show Hide

Bureau of Meteorology Tropical Cyclone Data

Name: WATOREA
Number: 558 / 197576_15

25 Apr 1976 00:00 UTC to 29 Apr 1976 12:00 UTC

    date/time    lat    long    hPa   cat  kts
1976-04-25 00    8.2   155.0   1004         25          
1976-04-25 11    9.5   152.6    998         30          
1976-04-25 17   10.7   152.0    996         35          
1976-04-25 23   11.7   151.4    994    1    40          
1976-04-26 05   12.6   150.6    988    1    50          
1976-04-26 11   13.1   149.9    982    2    50          
1976-04-26 17   14.0   149.1    976    2    60          
1976-04-26 23   14.9   148.4    970    3    70          
1976-04-27 02   15.2   148.0    970    3    70          
1976-04-27 05   15.6   147.8    970    3    75          
1976-04-27 08   15.9   147.6    970    3    80          
1976-04-27 11   16.3   147.8    970    3    90          
1976-04-27 14   16.9   148.2    974    2    90          
1976-04-27 17   17.5   148.6    978    2    90          
1976-04-27 23   19.2   149.8    980    2    90          
1976-04-28 05   20.9   151.2    980    2    70          
1976-04-28 11   22.5   152.9    980    2    60          
1976-04-28 17   24.5   155.1    990    1    50          
1976-04-28 23   27.1   158.9    995    1    40          
1976-04-29 12   32.0   164.0    985    2    45          
Winds are 10-min average.

Tropical cyclone tracks developed by Michael Bath using data from the Bureau of Meteorology and Google Maps.


[Australian Severe Weather index] [Copyright Notice] [Email Contacts] [Search This Site] [Privacy Policy]
Document: tropical_cyclone_watorea.htm Updated: 4 April 2018